Cross City, FL

8:00 PM EDT on October 22, 2014 (GMT -0400)
Cross City | Change Station
CLOSE
Current Station
Airport
Location: Cross City,
Elevation: 43 ft
Nearby Weather Stations

Elev 43 ft 29.64 °N, 83.10 °W | Updated 7 minutes ago

Clear
Clear
64 °F
Feels Like 64 °F
N
4
Wind Variable Wind from NE
Gusts 9 mph

Today
High -- | Low -- °F
--% Chance of Precip.
Yesterday
High -- | Low -- °F
Precip. -- in
7:38 AM 6:54 PM
Waning Crescent, 1% visible
Pressure 29.99 in
Visibility -9999.0 miles
Clouds
Dew Point 54 °F
Humidity 70%
Rainfall 0.04 in
Snow Depth Not available.
UV Not available.
Pollen 5.10 out of 12
Air Quality Not available.
Flu Activity Local Activity
METAR KCTY 222353Z AUTO 04003KT 18/12 A2999 RMK AO1 SLP156 T01780122 10272 20178 53013

More Conditions Fewer Conditions

Pressure 29.99 in
Visibility -9999.0 miles
Clouds
Dew Point 54 °F
Humidity 70%
Rainfall 0.04 in
Snow Depth Not available.
UV Not available.
Pollen 5.10 out of 12
Air Quality Not available.
Flu Activity Local Activity
METAR KCTY 222353Z AUTO 04003KT 18/12 A2999 RMK AO1 SLP156 T01780122 10272 20178 53013

More Conditions Fewer Conditions

10-Day Weather Forecast

Almanac

Astronomy

Oct. 22, 2014 Rise Set
Actual Time 7:38 AM EDT 6:54 PM EDT
Civil Twilight 7:14 AM EDT 7:18 PM EDT
Nautical Twilight 6:46 AM EDT 7:46 PM EDT
Astronomical Twilight 6:18 AM EDT 8:14 PM EDT
Moon 6:24 AM EDT (10/22) 6:16 PM EDT (10/22)
Length of Visible Light 12h 04m
Length of Day
11h 16m
Tomorrow will be 1m 39s shorter.
Waning Crescent, 1% of the Moon is Illuminated
Today
Waning Crescent
Oct 23
New
Oct 30
First Quarter
Nov 6
Full
Nov 14
Last Quarter

Today's Extremes

State Highs State Lows

Community

WunderPhotos

Upload Photos

1,764,080 photos uploaded!

WunderBlogs® & News

Nearby

Snow Depth

Station Depth Elevation
No new snow has been reported.

Earthquake Activity

City Distance Mag. Time & Date
No recent earthquake activity has been reported nearby.
Minimum magnitude displayed is 2.5.

Coastal Water Temperatures

Place Temperature
No Stations Reporting

Nearby Weather Stations